Alvadore, OR

4:20 PM PDT on August 30, 2015 (GMT -0700)
Alvadore | | Change Station
CLOSE
Current Station
Personal Weather Station
Location: Eugene, OR
Elevation: 397 ft
Nearby Weather Stations

Elev 397 ft 44.11 °N, 123.27 °W | Updated 16 seconds ago

Mostly Cloudy
Mostly Cloudy
70.2 °F
Feels Like 76 °F
N
1.6
Wind Variable Wind from NW
Gusts 1.6 mph

Today
High -- | Low -- °F
--% Chance of Precip.
Yesterday
High -- | Low -- °F
Precip. -- in
6:33 AM 7:52 PM
Full, 98% visible
Pressure 30.07 in
Visibility 10.0 miles
Clouds Few 4000 ft
Scattered Clouds 5500 ft
Mostly Cloudy 7500 ft
Heat Index 76 °F
Dew Point 56 °F
Humidity 62%
Rainfall 0.09 in
Snow Depth Not available.
UV 3 out of 12
Pollen .50 out of 12
Air Quality Not available.
Flu Activity Not available.
METAR KEUG 302254Z 24009KT 200V270 10SM FEW040 SCT055 BKN075 21/12 A3007 RMK AO2 SLP183 TCU DSNT SE-SW-NW T02060117
Pressure 30.07 in
Visibility 10.0 miles
Clouds Few 4000 ft
Scattered Clouds 5500 ft
Mostly Cloudy 7500 ft
Heat Index 76 °F
Dew Point 56 °F
Humidity 62%
Rainfall 0.09 in
Snow Depth Not available.
UV 3 out of 12
Pollen .50 out of 12
Air Quality Not available.
Flu Activity Not available.
METAR KEUG 302254Z 24009KT 200V270 10SM FEW040 SCT055 BKN075 21/12 A3007 RMK AO2 SLP183 TCU DSNT SE-SW-NW T02060117

10-Day Weather Forecast

×

Almanac

Astronomy

Aug. 30, 2015 Rise Set
Actual Time
Civil Twilight
Nautical Twilight
Astronomical Twilight
Moon
Length of Visible Light
Length of Day
Tomorrow will be .
, % of the Moon is Illuminated

Today's Extremes

State Highs State Lows

Community

WunderPhotos

Upload Photos

1,851,084 photos uploaded!

WunderBlogs® & News

Nearby

Air Quality

  Air Quality AQ Index Pollutant
Not available.

Snow Depth

Station Depth Elevation

Earthquake Activity

City Distance Mag. Time & Date
Minimum magnitude displayed is 2.5.

Coastal Water Temperatures

Place Temperature

Stations

Nearby Weather Stations

Station Location Temp. Windchill Dew Point Humidity Wind Precip. Elev Updated Type